Time;durP1;ratioP1;P1;durP2;ratioP2;P2;SDS_P1;SDS_P2;PMS_P1;PMS_P2;Temp;Humidity;BMP_temperature;BMP_pressure;BME280_temperature;BME280_humidity;BME280_pressure;Samples;Min_cycle;Max_cycle;Signal;HPM_P1;HPM_P2
2022/01/21 00:00:22;;;;;;;10.18;3.00;;;;;;;;;;4991756;28;92801;-68
2022/01/21 00:02:49;;;;;;;16.80;4.55;;;;;;;;;;4992267;28;94086;-68
2022/01/21 00:05:16;;;;;;;14.27;3.33;;;;;;;;;;4982801;28;94871;-68
2022/01/21 00:07:42;;;;;;;18.00;3.40;;;;;;;;;;4991840;28;96828;-68
2022/01/21 00:10:09;;;;;;;15.10;3.45;;;;;;;;;;4991942;28;94216;-68
2022/01/21 00:12:36;;;;;;;12.15;3.40;;;;;;;;;;4992844;28;92499;-68
2022/01/21 00:15:04;;;;;;;17.33;4.10;;;;;;;;;;4990672;28;94080;-69
2022/01/21 00:17:30;;;;;;;17.50;3.55;;;;;;;;;;4999425;28;93927;-68
2022/01/21 00:30:58;;;;;;;16.13;4.35;;;;;;;;;;4972303;28;95783;-68
2022/01/21 00:33:25;;;;;;;15.02;4.00;;;;;;;;;;5005292;28;93311;-68
2022/01/21 00:35:52;;;;;;;9.48;3.40;;;;;;;;;;4975098;28;95457;-68
2022/01/21 00:38:21;;;;;;;13.40;3.17;;;;;;;;;;4990506;28;93322;-68
2022/01/21 00:40:47;;;;;;;18.23;4.30;;;;;;;;;;4994860;28;92510;-68
2022/01/21 00:45:40;;;;;;;18.23;4.40;;;;;;;;;;4993217;28;92803;-68
2022/01/21 00:48:07;;;;;;;17.38;3.55;;;;;;;;;;4991976;28;93410;-68
2022/01/21 00:50:35;;;;;;;25.67;4.38;;;;;;;;;;4991392;28;92936;-69
2022/01/21 00:53:01;;;;;;;13.73;4.75;;;;;;;;;;4996813;28;92684;-68
2022/01/21 00:55:28;;;;;;;16.67;3.58;;;;;;;;;;4989621;28;95662;-68
2022/01/21 00:57:55;;;;;;;20.10;4.60;;;;;;;;;;4973847;28;93541;-68
2022/01/21 01:00:22;;;;;;;19.88;3.75;;;;;;;;;;4996005;28;93694;-68
2022/01/21 01:02:48;;;;;;;22.90;3.80;;;;;;;;;;4992033;28;94727;-68
2022/01/21 01:05:15;;;;;;;16.23;3.90;;;;;;;;;;4991486;28;94037;-68
2022/01/21 01:07:41;;;;;;;8.52;3.40;;;;;;;;;;4991432;28;93244;-68
2022/01/21 01:10:12;;;;;;;10.35;2.45;;;;;;;;;;4992660;28;93319;-68
2022/01/21 01:20:54;;;;;;;15.52;2.75;;;;;;;;;;4971662;28;95105;-69
2022/01/21 01:28:33;;;;;;;11.68;2.78;;;;;;;;;;4974745;28;92845;-68
2022/01/21 01:30:59;;;;;;;11.57;2.88;;;;;;;;;;4987598;28;95666;-68
2022/01/21 01:33:34;;;;;;;16.95;3.30;;;;;;;;;;4979415;28;92474;-68
2022/01/21 01:36:01;;;;;;;8.85;2.67;;;;;;;;;;4968984;28;93084;-68
2022/01/21 01:38:46;;;;;;;19.55;3.05;;;;;;;;;;4978861;28;92430;-68
2022/01/21 01:41:15;;;;;;;10.77;2.70;;;;;;;;;;4977920;28;93112;-68
2022/01/21 01:49:35;;;;;;;9.48;2.67;;;;;;;;;;4987827;28;96457;-68
2022/01/21 01:52:03;;;;;;;15.20;3.20;;;;;;;;;;4972411;28;93472;-68
2022/01/21 01:54:30;;;;;;;17.63;3.30;;;;;;;;;;4973857;28;92594;-68
2022/01/21 01:56:57;;;;;;;20.58;3.38;;;;;;;;;;4977716;28;93374;-68
2022/01/21 01:59:24;;;;;;;18.42;3.05;;;;;;;;;;4988501;28;96100;-69
2022/01/21 02:01:52;;;;;;;22.23;4.28;;;;;;;;;;4978847;28;92590;-68
2022/01/21 02:04:21;;;;;;;24.90;4.70;;;;;;;;;;4980354;28;93323;-68
2022/01/21 02:06:48;;;;;;;13.13;3.58;;;;;;;;;;4988886;28;94270;-68
2022/01/21 02:09:15;;;;;;;16.40;3.45;;;;;;;;;;4979022;28;93031;-68
2022/01/21 02:11:41;;;;;;;16.45;2.97;;;;;;;;;;4980948;28;95600;-68
2022/01/21 02:14:12;;;;;;;10.82;2.25;;;;;;;;;;4974462;28;93994;-68
2022/01/21 02:17:12;;;;;;;9.45;3.20;;;;;;;;;;4974922;28;93166;-69
2022/01/21 02:22:48;;;;;;;15.43;3.28;;;;;;;;;;4949435;28;94091;-68
2022/01/21 02:25:20;;;;;;;11.52;2.42;;;;;;;;;;4951640;28;95448;-68
2022/01/21 02:27:49;;;;;;;10.55;2.58;;;;;;;;;;4952798;28;95173;-68
2022/01/21 02:30:20;;;;;;;14.27;2.90;;;;;;;;;;4972782;28;91790;-68
2022/01/21 02:32:51;;;;;;;20.27;3.90;;;;;;;;;;4987947;28;94930;-68
2022/01/21 02:35:18;;;;;;;24.73;3.22;;;;;;;;;;4967058;28;93094;-68
2022/01/21 02:37:45;;;;;;;20.92;3.05;;;;;;;;;;4971249;28;94943;-68
2022/01/21 02:40:12;;;;;;;11.43;2.65;;;;;;;;;;4988034;28;96265;-69
2022/01/21 02:42:39;;;;;;;15.05;3.88;;;;;;;;;;4975051;28;92577;-68
2022/01/21 02:45:06;;;;;;;14.18;2.95;;;;;;;;;;4975440;28;95981;-68
2022/01/21 02:47:32;;;;;;;13.00;2.28;;;;;;;;;;4966136;28;96022;-68
2022/01/21 02:49:58;;;;;;;12.50;3.03;;;;;;;;;;4975825;28;92609;-68
2022/01/21 02:52:28;;;;;;;13.85;3.47;;;;;;;;;;4973312;28;93719;-68
2022/01/21 02:54:55;;;;;;;9.98;2.28;;;;;;;;;;4975153;28;93270;-68
2022/01/21 02:57:22;;;;;;;12.18;2.83;;;;;;;;;;4974334;28;94938;-68
2022/01/21 02:59:49;;;;;;;15.30;2.60;;;;;;;;;;4972508;28;94958;-68
2022/01/21 03:02:15;;;;;;;14.88;3.05;;;;;;;;;;4969097;28;94967;-68
2022/01/21 03:07:27;;;;;;;14.52;2.92;;;;;;;;;;4969748;28;95380;-68
2022/01/21 03:09:54;;;;;;;10.90;2.55;;;;;;;;;;4974616;28;92884;-68
2022/01/21 03:12:21;;;;;;;8.75;2.03;;;;;;;;;;4973464;28;93310;-68
2022/01/21 03:14:48;;;;;;;9.30;2.72;;;;;;;;;;4976012;28;93444;-68
2022/01/21 03:17:14;;;;;;;11.20;2.38;;;;;;;;;;4972985;28;92911;-68
2022/01/21 03:19:40;;;;;;;13.13;2.30;;;;;;;;;;4974977;28;95127;-68
2022/01/21 03:22:07;;;;;;;6.68;1.80;;;;;;;;;;4971816;28;92555;-68
2022/01/21 03:24:33;;;;;;;13.93;2.25;;;;;;;;;;4984927;28;94353;-68
2022/01/21 03:27:00;;;;;;;7.32;2.08;;;;;;;;;;4988219;28;95971;-68
2022/01/21 03:29:26;;;;;;;14.65;2.08;;;;;;;;;;4979850;28;92536;-68
2022/01/21 03:31:53;;;;;;;8.35;2.08;;;;;;;;;;4974813;28;94831;-68
2022/01/21 03:34:20;;;;;;;11.05;2.08;;;;;;;;;;4997536;28;93367;-68
2022/01/21 03:36:46;;;;;;;6.60;1.75;;;;;;;;;;5011499;28;92578;-68
2022/01/21 03:39:13;;;;;;;8.93;2.63;;;;;;;;;;4977715;28;95389;-68
2022/01/21 03:41:39;;;;;;;9.43;1.70;;;;;;;;;;4979756;28;92536;-68
2022/01/21 03:44:08;;;;;;;10.55;2.17;;;;;;;;;;4979796;28;95354;-68
2022/01/21 03:46:35;;;;;;;9.00;1.67;;;;;;;;;;4974783;28;95718;-68
2022/01/21 03:49:03;;;;;;;11.48;2.40;;;;;;;;;;4998849;28;92520;-68
2022/01/21 03:51:30;;;;;;;8.35;2.65;;;;;;;;;;4972963;28;96228;-68
2022/01/21 03:53:57;;;;;;;9.60;1.92;;;;;;;;;;4973898;28;97514;-68
2022/01/21 03:56:28;;;;;;;10.50;1.95;;;;;;;;;;4997522;28;92586;-68
2022/01/21 03:58:54;;;;;;;7.55;1.83;;;;;;;;;;4984092;28;95115;-68
2022/01/21 04:01:23;;;;;;;18.50;2.83;;;;;;;;;;4975195;28;92630;-68
2022/01/21 04:03:51;;;;;;;9.48;1.73;;;;;;;;;;4980243;28;94500;-68
2022/01/21 04:06:17;;;;;;;6.55;1.77;;;;;;;;;;4974110;28;94558;-68
2022/01/21 04:08:44;;;;;;;15.18;2.00;;;;;;;;;;4980480;28;91820;-69
2022/01/21 04:11:10;;;;;;;19.50;2.50;;;;;;;;;;4975857;28;95163;-68
2022/01/21 04:13:43;;;;;;;6.60;1.83;;;;;;;;;;4975936;28;95730;-68
2022/01/21 04:16:14;;;;;;;9.63;1.60;;;;;;;;;;4964854;28;94965;-68
2022/01/21 04:18:41;;;;;;;8.82;1.95;;;;;;;;;;4980301;28;97619;-68
2022/01/21 04:21:10;;;;;;;6.57;1.77;;;;;;;;;;4978524;28;95735;-68
2022/01/21 04:23:36;;;;;;;8.68;2.92;;;;;;;;;;4995682;28;93825;-68
2022/01/21 04:26:04;;;;;;;9.85;1.85;;;;;;;;;;4976395;28;95495;-68
2022/01/21 04:28:31;;;;;;;13.20;2.78;;;;;;;;;;4967819;28;93091;-68
2022/01/21 04:31:00;;;;;;;9.18;2.25;;;;;;;;;;4968740;28;93725;-68
2022/01/21 04:33:36;;;;;;;7.10;1.90;;;;;;;;;;4971766;28;96568;-68
2022/01/21 04:36:03;;;;;;;7.45;1.75;;;;;;;;;;4972715;28;92568;-68
2022/01/21 04:38:33;;;;;;;8.90;2.17;;;;;;;;;;4970908;28;94672;-68
2022/01/21 04:41:18;;;;;;;6.18;1.45;;;;;;;;;;4984761;28;98250;-68
2022/01/21 04:49:32;;;;;;;8.80;1.90;;;;;;;;;;4975503;28;93099;-68
2022/01/21 04:52:04;;;;;;;9.05;1.83;;;;;;;;;;4971056;28;94861;-68
2022/01/21 04:54:46;;;;;;;6.75;1.85;;;;;;;;;;4971021;28;93509;-68
2022/01/21 04:57:13;;;;;;;7.97;2.40;;;;;;;;;;4972422;28;92583;-68
2022/01/21 04:59:40;;;;;;;13.40;2.08;;;;;;;;;;4972093;28;94130;-68
2022/01/21 05:02:07;;;;;;;9.27;1.92;;;;;;;;;;4995881;28;95315;-68
2022/01/21 05:04:34;;;;;;;8.43;1.92;;;;;;;;;;4975296;28;92589;-68
2022/01/21 05:07:04;;;;;;;16.90;2.00;;;;;;;;;;4990985;28;95143;-68
2022/01/21 05:09:32;;;;;;;8.98;2.08;;;;;;;;;;4973456;28;92512;-68
2022/01/21 05:12:00;;;;;;;11.25;2.30;;;;;;;;;;4976966;28;92974;-68
2022/01/21 05:14:46;;;;;;;13.90;2.22;;;;;;;;;;4975662;28;95600;-68
2022/01/21 05:17:16;;;;;;;7.88;2.35;;;;;;;;;;4979282;28;92729;-68
2022/01/21 05:19:42;;;;;;;7.00;1.75;;;;;;;;;;4990103;28;95522;-68
2022/01/21 05:22:25;;;;;;;10.10;1.73;;;;;;;;;;4973317;28;93180;-68
2022/01/21 05:24:52;;;;;;;7.25;2.65;;;;;;;;;;4978285;28;93258;-68
2022/01/21 05:27:18;;;;;;;11.63;2.15;;;;;;;;;;4997295;28;92533;-68
2022/01/21 05:29:48;;;;;;;19.58;2.97;;;;;;;;;;4975648;28;92938;-68
2022/01/21 05:32:20;;;;;;;17.63;2.45;;;;;;;;;;4978996;28;95023;-69
2022/01/21 05:35:16;;;;;;;17.63;2.67;;;;;;;;;;4939053;28;92956;-68
2022/01/21 05:37:48;;;;;;;8.55;1.98;;;;;;;;;;4998246;28;92597;-68
2022/01/21 05:40:21;;;;;;;8.73;1.85;;;;;;;;;;4995227;28;92720;-68
2022/01/21 05:42:59;;;;;;;9.25;1.80;;;;;;;;;;5006936;28;95501;-68
2022/01/21 05:48:58;;;;;;;10.35;2.20;;;;;;;;;;4980778;28;94555;-68
2022/01/21 05:51:44;;;;;;;10.50;2.53;;;;;;;;;;4995578;28;92231;-68
2022/01/21 05:54:49;;;;;;;9.00;2.30;;;;;;;;;;4897865;28;92699;-68
2022/01/21 05:57:35;;;;;;;18.40;2.78;;;;;;;;;;4897704;28;93029;-68
2022/01/21 06:00:01;;;;;;;7.60;2.35;;;;;;;;;;4945605;28;95030;-68
2022/01/21 06:02:30;;;;;;;9.90;2.10;;;;;;;;;;4976088;28;97057;-68
2022/01/21 06:04:57;;;;;;;11.90;3.33;;;;;;;;;;4981061;28;94586;-68
2022/01/21 06:07:24;;;;;;;11.63;2.78;;;;;;;;;;4976692;28;92610;-68
2022/01/21 06:09:50;;;;;;;12.77;2.00;;;;;;;;;;4975662;28;95201;-68
2022/01/21 06:12:17;;;;;;;7.63;2.67;;;;;;;;;;4974591;28;96055;-68
2022/01/21 06:14:43;;;;;;;6.22;2.08;;;;;;;;;;5002082;28;93640;-69
2022/01/21 06:17:12;;;;;;;13.95;3.05;;;;;;;;;;4976792;28;95064;-68
2022/01/21 06:19:39;;;;;;;15.73;3.20;;;;;;;;;;5001997;28;92564;-68
2022/01/21 06:22:05;;;;;;;12.18;2.80;;;;;;;;;;4992879;28;93021;-68
2022/01/21 06:24:32;;;;;;;17.30;2.95;;;;;;;;;;4990932;28;96952;-68
2022/01/21 06:27:01;;;;;;;8.45;2.50;;;;;;;;;;4992505;28;92498;-68
2022/01/21 06:29:28;;;;;;;14.45;3.40;;;;;;;;;;4994218;28;94274;-69
2022/01/21 06:31:54;;;;;;;9.93;2.30;;;;;;;;;;4993632;28;94281;-70
2022/01/21 06:34:21;;;;;;;9.85;2.20;;;;;;;;;;4990146;28;92962;-68
2022/01/21 06:36:47;;;;;;;13.27;2.65;;;;;;;;;;4997384;28;93111;-68
2022/01/21 06:39:14;;;;;;;11.43;2.58;;;;;;;;;;4995395;28;93815;-68
2022/01/21 06:41:40;;;;;;;5.75;1.88;;;;;;;;;;4996856;28;94430;-68
2022/01/21 06:44:07;;;;;;;22.63;2.63;;;;;;;;;;4991360;28;94274;-68
2022/01/21 06:46:33;;;;;;;8.50;2.08;;;;;;;;;;4992707;28;92566;-68
2022/01/21 06:49:00;;;;;;;11.23;2.45;;;;;;;;;;4992414;28;96719;-68
2022/01/21 06:51:26;;;;;;;6.40;2.33;;;;;;;;;;5001702;28;94454;-68
2022/01/21 06:53:53;;;;;;;6.60;2.42;;;;;;;;;;4993453;28;92520;-68
2022/01/21 06:56:19;;;;;;;8.18;2.30;;;;;;;;;;4992556;28;93210;-69
2022/01/21 06:58:45;;;;;;;6.90;1.92;;;;;;;;;;4996429;28;94431;-69
2022/01/21 07:01:12;;;;;;;3.85;2.08;;;;;;;;;;4992397;28;93330;-68
2022/01/21 07:03:38;;;;;;;15.20;2.63;;;;;;;;;;4994361;28;94207;-69
2022/01/21 07:06:04;;;;;;;8.00;1.77;;;;;;;;;;5004422;28;92012;-68
2022/01/21 07:08:34;;;;;;;9.82;2.40;;;;;;;;;;4992018;28;94043;-69
2022/01/21 07:11:01;;;;;;;16.65;2.97;;;;;;;;;;4997158;28;93726;-69
2022/01/21 07:13:27;;;;;;;5.78;1.92;;;;;;;;;;4991660;28;94857;-69
2022/01/21 07:15:53;;;;;;;8.68;2.15;;;;;;;;;;4992770;28;96348;-69
2022/01/21 07:18:20;;;;;;;7.95;2.05;;;;;;;;;;4994254;28;94177;-68
2022/01/21 07:20:46;;;;;;;5.88;1.83;;;;;;;;;;4996160;28;92465;-69
2022/01/21 07:23:13;;;;;;;11.55;2.45;;;;;;;;;;4987583;28;94184;-69
2022/01/21 07:25:39;;;;;;;12.27;2.25;;;;;;;;;;4991518;28;92537;-68
2022/01/21 07:28:06;;;;;;;5.13;2.05;;;;;;;;;;4991736;28;93039;-68
2022/01/21 07:30:32;;;;;;;8.65;2.03;;;;;;;;;;4994088;28;93956;-68
2022/01/21 07:32:58;;;;;;;9.05;2.45;;;;;;;;;;4990803;28;92572;-70
2022/01/21 07:35:25;;;;;;;5.93;2.10;;;;;;;;;;4996493;28;93885;-69
2022/01/21 07:38:08;;;;;;;9.80;2.20;;;;;;;;;;4982876;28;95688;-68
2022/01/21 07:40:34;;;;;;;14.18;2.17;;;;;;;;;;4998553;28;93038;-69
2022/01/21 07:43:01;;;;;;;8.52;2.13;;;;;;;;;;4994037;28;94349;-68
2022/01/21 07:45:27;;;;;;;7.15;2.53;;;;;;;;;;4989756;28;93273;-69
2022/01/21 07:47:53;;;;;;;10.60;2.90;;;;;;;;;;4993412;28;94490;-69
2022/01/21 07:50:20;;;;;;;7.38;2.75;;;;;;;;;;4991481;28;93869;-69
2022/01/21 07:52:46;;;;;;;14.75;2.63;;;;;;;;;;4985651;28;93045;-69
2022/01/21 07:55:12;;;;;;;14.30;2.53;;;;;;;;;;4993510;28;93121;-68
2022/01/21 07:57:44;;;;;;;8.32;2.05;;;;;;;;;;4992490;28;94548;-69
2022/01/21 08:00:10;;;;;;;21.20;3.28;;;;;;;;;;4993221;28;93002;-69
2022/01/21 08:02:39;;;;;;;12.13;2.38;;;;;;;;;;4993580;28;94971;-69
2022/01/21 08:05:06;;;;;;;10.82;2.35;;;;;;;;;;4991924;28;92657;-69
2022/01/21 08:07:32;;;;;;;12.00;2.40;;;;;;;;;;4998304;28;94234;-68
2022/01/21 08:09:59;;;;;;;11.73;2.55;;;;;;;;;;4994195;28;94115;-68
2022/01/21 08:12:25;;;;;;;6.97;2.17;;;;;;;;;;5004381;28;93898;-68
2022/01/21 08:14:51;;;;;;;13.15;2.88;;;;;;;;;;4993283;28;93950;-68
2022/01/21 08:17:18;;;;;;;12.55;3.38;;;;;;;;;;5003670;28;94217;-69
2022/01/21 08:19:44;;;;;;;11.48;3.13;;;;;;;;;;4996584;28;91802;-68
2022/01/21 08:22:10;;;;;;;17.95;3.33;;;;;;;;;;4992610;28;94002;-69
2022/01/21 08:24:37;;;;;;;13.25;2.63;;;;;;;;;;4995928;28;94299;-68
2022/01/21 08:27:04;;;;;;;9.52;2.72;;;;;;;;;;4996412;28;95436;-68
2022/01/21 08:29:33;;;;;;;13.63;3.60;;;;;;;;;;4998579;28;94361;-68
2022/01/21 08:32:00;;;;;;;13.30;2.72;;;;;;;;;;4992360;28;92585;-68
2022/01/21 08:34:26;;;;;;;8.18;2.85;;;;;;;;;;4998922;28;94308;-68
2022/01/21 08:36:54;;;;;;;9.85;3.40;;;;;;;;;;4992089;28;93987;-68
2022/01/21 08:39:20;;;;;;;13.57;2.83;;;;;;;;;;4992948;28;92556;-68
2022/01/21 08:41:47;;;;;;;12.55;3.97;;;;;;;;;;4992075;28;92958;-68
2022/01/21 08:44:13;;;;;;;7.53;2.90;;;;;;;;;;4992123;28;92959;-68
2022/01/21 08:46:39;;;;;;;18.40;3.88;;;;;;;;;;5000002;28;93121;-69
2022/01/21 08:49:26;;;;;;;13.65;4.03;;;;;;;;;;4999562;28;93345;-69
2022/01/21 08:51:55;;;;;;;12.63;2.97;;;;;;;;;;4989777;28;94884;-69
2022/01/21 08:54:22;;;;;;;14.73;2.97;;;;;;;;;;4998464;28;96239;-68
2022/01/21 08:56:49;;;;;;;15.95;3.72;;;;;;;;;;4991544;28;93209;-69
2022/01/21 08:59:16;;;;;;;9.27;3.63;;;;;;;;;;4989045;28;92675;-69
2022/01/21 09:01:43;;;;;;;13.88;3.95;;;;;;;;;;4991579;28;94182;-69
2022/01/21 09:04:10;;;;;;;10.65;3.15;;;;;;;;;;4992149;28;95938;-71
2022/01/21 09:06:36;;;;;;;22.15;3.95;;;;;;;;;;4988125;28;93956;-68
2022/01/21 09:09:05;;;;;;;12.43;3.50;;;;;;;;;;4985803;28;93473;-68
2022/01/21 09:11:31;;;;;;;6.63;3.03;;;;;;;;;;4991223;28;92859;-68
2022/01/21 09:14:01;;;;;;;19.00;3.90;;;;;;;;;;4991324;28;93892;-68
2022/01/21 09:16:28;;;;;;;19.40;4.22;;;;;;;;;;4989129;28;96668;-68
2022/01/21 09:18:57;;;;;;;21.55;3.20;;;;;;;;;;4990580;28;92617;-68
2022/01/21 09:21:30;;;;;;;14.90;3.67;;;;;;;;;;4991565;28;94324;-68
2022/01/21 09:23:56;;;;;;;14.55;3.08;;;;;;;;;;4990606;28;94115;-68
2022/01/21 09:26:23;;;;;;;12.93;3.08;;;;;;;;;;4990376;28;94222;-68
2022/01/21 09:28:54;;;;;;;13.30;3.15;;;;;;;;;;4993523;28;93418;-68
2022/01/21 09:31:21;;;;;;;14.95;3.17;;;;;;;;;;4991617;28;92510;-68
2022/01/21 09:34:07;;;;;;;15.10;3.67;;;;;;;;;;4992052;28;93986;-68
2022/01/21 09:36:33;;;;;;;13.40;3.13;;;;;;;;;;4990251;28;94508;-68
2022/01/21 09:39:00;;;;;;;12.82;3.33;;;;;;;;;;4990892;28;92503;-68
2022/01/21 09:41:28;;;;;;;12.45;3.78;;;;;;;;;;4989215;28;94913;-68
2022/01/21 09:43:54;;;;;;;20.25;3.15;;;;;;;;;;4980856;28;93646;-68
2022/01/21 09:46:33;;;;;;;18.27;3.28;;;;;;;;;;4992301;28;92546;-68
2022/01/21 09:49:09;;;;;;;14.23;3.70;;;;;;;;;;4987355;28;94174;-68
2022/01/21 09:51:36;;;;;;;10.07;3.25;;;;;;;;;;4996833;28;94268;-68
2022/01/21 09:54:03;;;;;;;11.98;3.63;;;;;;;;;;4987057;28;93438;-68
2022/01/21 09:56:30;;;;;;;12.13;3.38;;;;;;;;;;4993578;28;93725;-68
2022/01/21 09:58:59;;;;;;;25.17;3.80;;;;;;;;;;4993422;28;91798;-68
2022/01/21 10:01:26;;;;;;;21.15;3.90;;;;;;;;;;4995732;28;92713;-68
2022/01/21 10:03:53;;;;;;;15.35;3.22;;;;;;;;;;4993320;28;94332;-68
2022/01/21 10:06:25;;;;;;;21.90;4.37;;;;;;;;;;4992747;28;94934;-69
2022/01/21 10:08:55;;;;;;;22.83;3.75;;;;;;;;;;4994107;28;96707;-68
2022/01/21 10:11:23;;;;;;;14.63;4.07;;;;;;;;;;4993881;28;94647;-68
2022/01/21 10:13:50;;;;;;;22.05;4.38;;;;;;;;;;4997402;28;92433;-68
2022/01/21 10:16:17;;;;;;;21.10;3.33;;;;;;;;;;4993338;28;94119;-68
2022/01/21 10:19:06;;;;;;;24.13;3.80;;;;;;;;;;4993420;28;92520;-68
2022/01/21 10:21:33;;;;;;;13.60;3.42;;;;;;;;;;4989416;28;93060;-68
2022/01/21 10:24:07;;;;;;;18.58;3.80;;;;;;;;;;4994198;28;92768;-68
2022/01/21 10:26:33;;;;;;;11.00;3.10;;;;;;;;;;4992704;28;93014;-68
2022/01/21 10:29:00;;;;;;;16.13;3.45;;;;;;;;;;4995311;28;94031;-68
2022/01/21 10:31:27;;;;;;;19.45;3.78;;;;;;;;;;4992210;28;96752;-68
2022/01/21 10:33:59;;;;;;;19.60;3.50;;;;;;;;;;4993514;28;92532;-68
2022/01/21 10:36:28;;;;;;;21.13;3.53;;;;;;;;;;4991886;28;94207;-68
2022/01/21 10:38:59;;;;;;;17.38;3.47;;;;;;;;;;4991549;28;93056;-68
2022/01/21 10:41:30;;;;;;;13.32;3.22;;;;;;;;;;4985297;28;94623;-68
2022/01/21 10:44:07;;;;;;;25.40;4.32;;;;;;;;;;4988965;28;93826;-69
2022/01/21 10:46:33;;;;;;;14.18;3.55;;;;;;;;;;4991836;28;92899;-69
2022/01/21 10:49:07;;;;;;;15.43;3.97;;;;;;;;;;4996502;28;93834;-68
2022/01/21 10:51:35;;;;;;;17.80;4.70;;;;;;;;;;4989270;28;92536;-67
2022/01/21 10:54:12;;;;;;;16.70;3.58;;;;;;;;;;4990377;28;93843;-68
2022/01/21 10:56:39;;;;;;;18.60;4.43;;;;;;;;;;4988954;28;94866;-68
2022/01/21 10:59:05;;;;;;;19.30;4.85;;;;;;;;;;4995606;28;92513;-69
2022/01/21 11:01:31;;;;;;;9.93;2.92;;;;;;;;;;4985130;28;94460;-69
2022/01/21 11:04:08;;;;;;;24.23;4.00;;;;;;;;;;4995475;28;93596;-68
2022/01/21 11:06:46;;;;;;;19.90;3.90;;;;;;;;;;4987952;28;93026;-68
2022/01/21 11:09:20;;;;;;;19.40;3.58;;;;;;;;;;4983164;28;93691;-69
2022/01/21 11:11:48;;;;;;;19.80;4.55;;;;;;;;;;4987406;28;93323;-69
2022/01/21 11:14:16;;;;;;;16.77;3.85;;;;;;;;;;4991811;28;91909;-69
2022/01/21 11:16:45;;;;;;;17.77;3.35;;;;;;;;;;4987148;28;93346;-68
2022/01/21 11:19:34;;;;;;;9.98;2.83;;;;;;;;;;4990741;28;93366;-68
2022/01/21 11:22:01;;;;;;;18.77;3.90;;;;;;;;;;4991727;28;95699;-68
2022/01/21 11:24:28;;;;;;;17.90;3.40;;;;;;;;;;4996311;28;93347;-68
2022/01/21 11:27:08;;;;;;;14.45;4.30;;;;;;;;;;4997600;28;92504;-68
2022/01/21 11:29:35;;;;;;;13.38;3.40;;;;;;;;;;4993719;28;93557;-68
2022/01/21 11:32:03;;;;;;;17.27;4.10;;;;;;;;;;4991521;28;94026;-68
2022/01/21 11:34:30;;;;;;;18.38;3.25;;;;;;;;;;4987084;28;93233;-68
2022/01/21 11:36:57;;;;;;;18.45;3.70;;;;;;;;;;4991570;28;94028;-68
2022/01/21 11:39:28;;;;;;;12.88;3.42;;;;;;;;;;4993853;28;95759;-68
2022/01/21 11:41:56;;;;;;;19.65;3.70;;;;;;;;;;4998887;28;92677;-67
2022/01/21 11:44:25;;;;;;;24.98;4.13;;;;;;;;;;4993032;28;93076;-68
2022/01/21 11:47:02;;;;;;;13.82;2.75;;;;;;;;;;4991239;28;94786;-67
2022/01/21 11:49:30;;;;;;;17.70;3.40;;;;;;;;;;5003815;28;96650;-69
2022/01/21 11:52:10;;;;;;;14.32;3.47;;;;;;;;;;4992112;28;93411;-68
2022/01/21 11:54:37;;;;;;;13.05;3.03;;;;;;;;;;4996621;28;94396;-68
2022/01/21 11:57:05;;;;;;;16.95;3.65;;;;;;;;;;4986385;28;93950;-68
2022/01/21 12:00:27;;;;;;;20.10;4.18;;;;;;;;;;4999876;28;94699;-68
2022/01/21 12:02:30;;;;;;;;;;;;;;;;;;4985040;28;92534;-68
2022/01/21 12:04:59;;;;;;;16.35;3.33;;;;;;;;;;4990285;28;122495;-68
2022/01/21 12:07:34;;;;;;;8.48;3.00;;;;;;;;;;4994864;28;92642;-68
2022/01/21 12:10:05;;;;;;;16.92;2.47;;;;;;;;;;4981846;28;93734;-67
2022/01/21 12:12:55;;;;;;;16.00;3.33;;;;;;;;;;4989988;28;96767;-67
2022/01/21 12:18:10;;;;;;;28.50;3.22;;;;;;;;;;4988560;28;94283;-68
2022/01/21 12:20:36;;;;;;;22.05;3.38;;;;;;;;;;4991596;28;93001;-68
2022/01/21 12:23:09;;;;;;;12.93;2.65;;;;;;;;;;4979927;28;93068;-68
2022/01/21 12:25:35;;;;;;;;;;;;;;;;;;4995002;28;94326;-69
2022/01/21 12:28:15;;;;;;;15.68;2.40;;;;;;;;;;4998358;28;123633;-68
2022/01/21 12:30:51;;;;;;;9.48;2.55;;;;;;;;;;4992012;28;93634;-69
2022/01/21 12:33:49;;;;;;;12.32;2.78;;;;;;;;;;4973316;28;93536;-69
2022/01/21 12:36:17;;;;;;;11.30;2.75;;;;;;;;;;4986436;28;92492;-68
2022/01/21 12:41:15;;;;;;;14.88;2.75;;;;;;;;;;4992159;28;94553;-68
2022/01/21 12:43:46;;;;;;;8.50;2.50;;;;;;;;;;4992563;28;93235;-69
2022/01/21 12:46:14;;;;;;;22.40;3.47;;;;;;;;;;4984356;28;93178;-68
2022/01/21 12:48:43;;;;;;;9.98;2.22;;;;;;;;;;4991461;28;93791;-68
2022/01/21 12:56:44;;;;;;;13.82;2.40;;;;;;;;;;4996122;28;91778;-69
2022/01/21 12:59:18;;;;;;;7.95;2.15;;;;;;;;;;4998676;28;93789;-68
2022/01/21 13:01:45;;;;;;;10.88;2.85;;;;;;;;;;4991697;28;94234;-68
2022/01/21 13:04:17;;;;;;;14.05;2.83;;;;;;;;;;4990792;28;94939;-68
2022/01/21 13:06:44;;;;;;;14.05;3.38;;;;;;;;;;4991349;28;95669;-68
2022/01/21 13:09:12;;;;;;;20.48;4.10;;;;;;;;;;4999571;28;94564;-68
2022/01/21 13:11:41;;;;;;;14.60;2.92;;;;;;;;;;4997727;28;92526;-68
2022/01/21 13:17:08;;;;;;;9.90;3.05;;;;;;;;;;4991621;28;92878;-68
2022/01/21 13:19:43;;;;;;;19.88;3.80;;;;;;;;;;4991959;28;94180;-68
2022/01/21 13:22:16;;;;;;;22.30;2.97;;;;;;;;;;4993731;28;92467;-68
2022/01/21 13:24:57;;;;;;;20.02;2.85;;;;;;;;;;4994860;28;94057;-68
2022/01/21 13:27:26;;;;;;;16.52;2.72;;;;;;;;;;4991590;28;93039;-68
2022/01/21 13:29:58;;;;;;;14.23;3.17;;;;;;;;;;4992232;28;96601;-68
2022/01/21 13:32:25;;;;;;;8.35;2.65;;;;;;;;;;4987779;28;93522;-68
2022/01/21 13:34:51;;;;;;;20.00;3.13;;;;;;;;;;4994478;28;93154;-68
2022/01/21 13:37:18;;;;;;;11.00;2.88;;;;;;;;;;4995853;28;94106;-68
2022/01/21 13:39:47;;;;;;;14.13;2.78;;;;;;;;;;4990701;28;94296;-68
2022/01/21 13:42:16;;;;;;;14.02;3.08;;;;;;;;;;4993281;28;93427;-69
2022/01/21 13:44:51;;;;;;;12.25;3.05;;;;;;;;;;4988777;28;92506;-69
2022/01/21 13:47:23;;;;;;;18.70;3.75;;;;;;;;;;4995167;28;93283;-68
2022/01/21 13:49:50;;;;;;;14.52;3.00;;;;;;;;;;4993961;28;94535;-68
2022/01/21 13:52:16;;;;;;;15.32;2.50;;;;;;;;;;4994307;28;92418;-68
2022/01/21 13:54:45;;;;;;;11.20;2.10;;;;;;;;;;4990688;28;94940;-68
2022/01/21 13:57:12;;;;;;;9.32;1.88;;;;;;;;;;4994010;28;94180;-68
2022/01/21 13:59:42;;;;;;;7.07;1.77;;;;;;;;;;4993705;28;94779;-68
2022/01/21 14:02:14;;;;;;;11.82;2.50;;;;;;;;;;4991820;28;93812;-69
2022/01/21 14:04:53;;;;;;;10.85;2.15;;;;;;;;;;4990396;28;92739;-69
2022/01/21 14:07:23;;;;;;;12.48;1.90;;;;;;;;;;4994160;28;93755;-69
2022/01/21 14:09:49;;;;;;;10.55;2.30;;;;;;;;;;4992328;28;96640;-69
2022/01/21 14:12:15;;;;;;;12.25;2.08;;;;;;;;;;4987651;28;92307;-69
2022/01/21 14:14:42;;;;;;;13.27;3.08;;;;;;;;;;4994545;28;93262;-69
2022/01/21 14:17:09;;;;;;;16.33;2.95;;;;;;;;;;4992833;28;94230;-69
2022/01/21 14:19:40;;;;;;;13.55;3.20;;;;;;;;;;4995228;28;94928;-68
2022/01/21 14:22:08;;;;;;;7.78;2.22;;;;;;;;;;4995508;28;93801;-69
2022/01/21 14:24:39;;;;;;;15.38;2.78;;;;;;;;;;4985484;28;95575;-69
2022/01/21 14:27:05;;;;;;;14.02;2.90;;;;;;;;;;4993365;28;93304;-69
2022/01/21 14:29:38;;;;;;;14.00;2.45;;;;;;;;;;4991895;28;95376;-68
2022/01/21 14:32:15;;;;;;;5.55;1.80;;;;;;;;;;4993103;28;92516;-69
2022/01/21 14:34:43;;;;;;;11.38;2.58;;;;;;;;;;4997319;28;94352;-69
2022/01/21 14:37:12;;;;;;;10.93;2.72;;;;;;;;;;4998906;28;94206;-69
2022/01/21 14:39:40;;;;;;;9.40;2.22;;;;;;;;;;5000122;28;92776;-69
2022/01/21 14:42:06;;;;;;;11.85;3.00;;;;;;;;;;4996769;28;92961;-69
2022/01/21 14:44:44;;;;;;;12.68;2.70;;;;;;;;;;5000147;28;94951;-69
2022/01/21 14:47:12;;;;;;;14.38;3.13;;;;;;;;;;4993248;28;96295;-69
2022/01/21 14:49:40;;;;;;;7.97;2.15;;;;;;;;;;4995983;28;94301;-69
2022/01/21 14:54:55;;;;;;;11.93;2.47;;;;;;;;;;4987027;28;93142;-69
2022/01/21 14:57:29;;;;;;;12.75;2.72;;;;;;;;;;4993400;28;94035;-69
2022/01/21 14:59:56;;;;;;;9.88;2.65;;;;;;;;;;4997701;28;93702;-69
2022/01/21 15:02:27;;;;;;;8.55;2.97;;;;;;;;;;4997376;28;94363;-69
2022/01/21 15:04:54;;;;;;;17.85;2.80;;;;;;;;;;4989098;28;93563;-69
2022/01/21 15:07:25;;;;;;;20.98;3.35;;;;;;;;;;4998398;28;95129;-69
2022/01/21 15:09:56;;;;;;;16.92;3.30;;;;;;;;;;4991907;28;95607;-70
2022/01/21 15:15:10;;;;;;;11.30;2.72;;;;;;;;;;4994884;28;92879;-69
2022/01/21 15:17:37;;;;;;;21.40;3.63;;;;;;;;;;4993576;28;93701;-70
2022/01/21 15:20:04;;;;;;;17.70;3.13;;;;;;;;;;4997715;28;92543;-70
2022/01/21 15:22:30;;;;;;;15.95;3.00;;;;;;;;;;5003358;28;94275;-69
2022/01/21 15:24:59;;;;;;;19.52;3.30;;;;;;;;;;4993657;28;94172;-70
2022/01/21 15:27:25;;;;;;;11.80;2.75;;;;;;;;;;4996385;28;91678;-69
2022/01/21 15:29:53;;;;;;;15.32;3.08;;;;;;;;;;5003308;28;94232;-69
2022/01/21 15:32:20;;;;;;;19.30;3.55;;;;;;;;;;4998316;28;92513;-69
2022/01/21 15:34:46;;;;;;;10.57;2.92;;;;;;;;;;4991306;28;94960;-69
2022/01/21 15:37:13;;;;;;;10.20;2.92;;;;;;;;;;4993095;28;94856;-69
2022/01/21 15:39:43;;;;;;;16.30;2.75;;;;;;;;;;5001398;28;92439;-69
2022/01/21 15:42:10;;;;;;;19.05;3.33;;;;;;;;;;4993399;28;93981;-69
2022/01/21 15:44:37;;;;;;;20.00;3.25;;;;;;;;;;4992890;28;94245;-70
2022/01/21 15:47:04;;;;;;;15.05;3.40;;;;;;;;;;4985273;28;92490;-70
2022/01/21 15:49:31;;;;;;;10.65;2.50;;;;;;;;;;4994970;28;92900;-69
2022/01/21 15:52:13;;;;;;;13.43;2.67;;;;;;;;;;4986986;28;91715;-70